Time;durP1;ratioP1;P1;durP2;ratioP2;P2;SDS_P1;SDS_P2;PMS_P1;PMS_P2;Temp;Humidity;BMP_temperature;BMP_pressure;BME280_temperature;BME280_humidity;BME280_pressure;Samples;Min_cycle;Max_cycle;Signal;HPM_P1;HPM_P2
2022/09/02 00:00:45;;;;;;;3.50;3.30;;;20.30;67.80;;;;;;5068508;28;20457;-69
2022/09/02 00:03:12;;;;;;;3.90;3.60;;;20.20;67.70;;;;;;5067725;28;20434;-69
2022/09/02 00:05:37;;;;;;;3.23;3.03;;;20.20;67.80;;;;;;5067761;28;20456;-69
2022/09/02 00:08:03;;;;;;;3.57;3.30;;;20.20;67.80;;;;;;5067403;28;20809;-69
2022/09/02 00:10:30;;;;;;;3.20;2.90;;;20.20;67.80;;;;;;5066816;28;20223;-69
2022/09/02 00:12:56;;;;;;;3.70;3.40;;;20.20;67.90;;;;;;5069736;28;20453;-68
2022/09/02 00:15:22;;;;;;;3.37;3.07;;;20.10;67.60;;;;;;5075080;28;20974;-69
2022/09/02 00:17:48;;;;;;;2.77;2.60;;;20.10;67.60;;;;;;5071789;28;20302;-68
2022/09/02 00:20:13;;;;;;;3.80;3.50;;;20.00;67.30;;;;;;5071026;28;20276;-69
2022/09/02 00:22:39;;;;;;;3.30;3.00;;;20.00;67.30;;;;;;5057824;28;20225;-69
2022/09/02 00:25:06;;;;;;;3.00;2.80;;;20.00;67.70;;;;;;5071436;28;20223;-69
2022/09/02 00:27:32;;;;;;;3.87;3.50;;;20.00;67.50;;;;;;5077973;28;20475;-69
2022/09/02 00:29:57;;;;;;;3.17;2.97;;;19.90;67.50;;;;;;5057211;28;20582;-68
2022/09/02 00:32:23;;;;;;;3.03;2.83;;;19.90;67.30;;;;;;5071831;28;20215;-68
2022/09/02 00:34:49;;;;;;;3.03;2.80;;;19.90;67.40;;;;;;5068581;28;20239;-69
2022/09/02 00:37:15;;;;;;;3.10;2.80;;;19.80;67.20;;;;;;5051194;28;20230;-69
2022/09/02 00:39:41;;;;;;;2.60;2.50;;;19.80;67.20;;;;;;5083817;28;20222;-69
2022/09/02 00:42:07;;;;;;;3.10;2.90;;;19.80;67.20;;;;;;5076519;28;20450;-69
2022/09/02 00:44:33;;;;;;;3.07;2.87;;;19.80;67.00;;;;;;5046530;28;20212;-69
2022/09/02 00:46:59;;;;;;;3.10;2.90;;;19.80;67.00;;;;;;5067498;28;21007;-69
2022/09/02 00:49:28;;;;;;;3.70;3.40;;;19.70;66.90;;;;;;5069061;28;20219;-68
2022/09/02 00:51:58;;;;;;;2.90;2.70;;;19.70;67.10;;;;;;5037459;28;20462;-68
2022/09/02 00:54:26;;;;;;;3.17;2.97;;;19.70;67.00;;;;;;5034730;28;20450;-69
2022/09/02 00:56:53;;;;;;;3.13;2.80;;;19.60;67.10;;;;;;5065464;28;20472;-69
2022/09/02 01:00:06;;;;;;;3.40;3.10;;;19.60;67.10;;;;;;5057807;28;20456;-69
2022/09/02 01:02:32;;;;;;;5.23;2.83;;;19.60;68.00;;;;;;5060562;28;20445;-69
2022/09/02 01:04:59;;;;;;;3.07;2.87;;;19.50;67.20;;;;;;5057595;28;20477;-69
2022/09/02 01:07:28;;;;;;;3.30;3.10;;;19.50;67.20;;;;;;5069834;28;20453;-68
2022/09/02 01:09:55;;;;;;;3.60;3.33;;;19.50;67.30;;;;;;5052282;28;20464;-69
2022/09/02 01:12:21;;;;;;;3.53;3.23;;;19.50;67.40;;;;;;5070497;28;20550;-70
2022/09/02 01:14:47;;;;;;;6.10;3.00;;;19.50;67.20;;;;;;5070843;28;20523;-69
2022/09/02 01:17:17;;;;;;;4.17;2.90;;;19.50;67.30;;;;;;5061180;28;20496;-68
2022/09/02 01:19:48;;;;;;;5.13;2.47;;;19.40;67.30;;;;;;5048715;28;20257;-69
2022/09/02 01:22:32;;;;;;;3.20;3.00;;;19.30;67.50;;;;;;5069762;28;20446;-69
2022/09/02 01:25:20;;;;;;;3.40;3.20;;;19.20;67.50;;;;;;5052542;28;20465;-68
2022/09/02 01:27:47;;;;;;;3.20;2.70;;;19.20;67.70;;;;;;5056335;28;20443;-68
2022/09/02 01:30:18;;;;;;;3.83;3.43;;;19.10;67.70;;;;;;5072680;28;20453;-70
2022/09/02 01:32:44;;;;;;;3.10;2.90;;;19.10;67.80;;;;;;5060656;28;20512;-68
2022/09/02 01:35:11;;;;;;;4.00;3.00;;;19.00;68.00;;;;;;5065394;28;20937;-68
2022/09/02 01:37:38;;;;;;;3.77;3.47;;;19.00;68.10;;;;;;5069156;28;20279;-69
2022/09/02 01:40:10;;;;;;;3.23;2.93;;;19.00;68.10;;;;;;5086805;28;20533;-69
2022/09/02 01:42:38;;;;;;;3.20;2.90;;;19.00;67.80;;;;;;5067278;28;20466;-69
2022/09/02 01:45:05;;;;;;;4.37;2.50;;;19.00;67.60;;;;;;5063947;28;20463;-69
2022/09/02 01:47:31;;;;;;;2.60;2.50;;;19.00;67.30;;;;;;5066546;28;20520;-69
2022/09/02 01:49:58;;;;;;;3.00;2.80;;;19.00;67.50;;;;;;5050178;28;20450;-70
2022/09/02 01:52:26;;;;;;;2.60;2.37;;;19.00;67.50;;;;;;5037517;28;20443;-68
2022/09/02 01:54:52;;;;;;;5.67;3.33;;;19.00;67.60;;;;;;5050703;28;20465;-69
2022/09/02 01:57:19;;;;;;;3.20;3.00;;;19.00;67.60;;;;;;5067342;28;20457;-68
2022/09/02 01:59:45;;;;;;;3.70;3.40;;;18.90;67.60;;;;;;5067371;28;20594;-68
2022/09/02 02:02:14;;;;;;;3.17;2.97;;;18.90;67.40;;;;;;5067558;28;20449;-68
2022/09/02 02:04:40;;;;;;;3.67;3.33;;;18.90;67.70;;;;;;5078843;28;20987;-68
2022/09/02 02:07:06;;;;;;;2.90;2.80;;;18.90;67.60;;;;;;5060633;28;20450;-69
2022/09/02 02:09:33;;;;;;;3.60;3.30;;;18.80;67.70;;;;;;5069266;28;20686;-68
2022/09/02 02:11:59;;;;;;;3.63;3.33;;;18.70;68.20;;;;;;5069065;28;20461;-67
2022/09/02 02:14:28;;;;;;;2.93;2.63;;;18.70;68.30;;;;;;5069076;28;20789;-68
2022/09/02 02:16:54;;;;;;;2.60;2.50;;;18.70;68.30;;;;;;5060716;28;20446;-68
2022/09/02 02:19:20;;;;;;;3.20;3.00;;;18.70;68.30;;;;;;5076045;28;20532;-68
2022/09/02 02:21:47;;;;;;;4.50;2.70;;;18.70;68.30;;;;;;5069276;28;20215;-69
2022/09/02 02:24:13;;;;;;;2.90;2.70;;;18.70;68.20;;;;;;5066793;28;20450;-68
2022/09/02 02:26:38;;;;;;;4.30;4.00;;;18.70;68.30;;;;;;5071186;28;20222;-68
2022/09/02 02:29:07;;;;;;;3.50;2.87;;;18.70;68.30;;;;;;5068955;28;20215;-69
2022/09/02 02:31:33;;;;;;;3.10;2.90;;;18.70;68.40;;;;;;5070764;28;20453;-67
2022/09/02 02:34:00;;;;;;;2.90;2.70;;;18.70;68.50;;;;;;5069875;28;20458;-69
2022/09/02 02:36:26;;;;;;;2.90;2.70;;;18.70;68.40;;;;;;5058004;28;20220;-69
2022/09/02 02:38:52;;;;;;;2.80;2.60;;;18.60;68.20;;;;;;5051032;28;20483;-69
2022/09/02 02:41:18;;;;;;;2.90;2.70;;;18.60;68.20;;;;;;5080648;28;20219;-68
2022/09/02 02:43:44;;;;;;;3.07;2.87;;;18.60;68.20;;;;;;5069023;28;20215;-69
2022/09/02 02:46:10;;;;;;;3.20;3.00;;;18.60;68.30;;;;;;5068751;28;20481;-70
2022/09/02 02:48:37;;;;;;;2.77;2.57;;;18.60;68.40;;;;;;5069016;28;20503;-69
2022/09/02 02:51:05;;;;;;;3.50;2.90;;;18.50;68.30;;;;;;5068636;28;20446;-69
2022/09/02 02:53:33;;;;;;;3.20;2.83;;;18.50;68.50;;;;;;5068530;28;20453;-69
2022/09/02 02:55:59;;;;;;;4.10;3.40;;;18.50;69.30;;;;;;5068827;28;20532;-69
2022/09/02 02:58:25;;;;;;;2.80;2.60;;;18.40;68.50;;;;;;5067208;28;20500;-69
2022/09/02 03:00:52;;;;;;;6.93;2.93;;;18.40;68.50;;;;;;5068147;28;20457;-68
2022/09/02 03:03:21;;;;;;;3.07;2.77;;;18.40;68.60;;;;;;5069344;28;20453;-68
2022/09/02 03:05:50;;;;;;;3.27;3.07;;;18.30;68.90;;;;;;5068634;28;20466;-68
2022/09/02 03:08:19;;;;;;;3.10;2.90;;;18.30;69.00;;;;;;5050994;28;20503;-69
2022/09/02 03:10:53;;;;;;;3.10;2.60;;;18.20;68.90;;;;;;5069459;28;20524;-69
2022/09/02 03:13:22;;;;;;;3.40;3.10;;;18.20;69.10;;;;;;5051908;28;20468;-68
2022/09/02 03:15:49;;;;;;;3.33;3.13;;;18.20;68.90;;;;;;5076052;28;20446;-69
2022/09/02 03:18:16;;;;;;;2.87;2.70;;;18.20;69.00;;;;;;5068189;28;20532;-70
2022/09/02 03:20:42;;;;;;;2.80;2.60;;;18.20;69.10;;;;;;5065288;28;20458;-69
2022/09/02 03:23:11;;;;;;;2.73;2.60;;;18.20;69.00;;;;;;5068000;28;20489;-67
2022/09/02 03:25:42;;;;;;;3.13;2.83;;;18.20;69.30;;;;;;5051469;28;20465;-68
2022/09/02 03:28:16;;;;;;;3.33;3.03;;;18.10;69.30;;;;;;5048798;28;20466;-68
2022/09/02 03:30:44;;;;;;;4.00;3.70;;;18.10;69.20;;;;;;5075598;28;20461;-69
2022/09/02 03:33:10;;;;;;;3.77;3.23;;;18.10;69.20;;;;;;5069268;28;20456;-69
2022/09/02 03:35:42;;;;;;;3.07;2.80;;;18.10;69.30;;;;;;5071446;28;20941;-69
2022/09/02 03:38:09;;;;;;;3.00;2.73;;;18.00;70.00;;;;;;5045985;28;20695;-69
2022/09/02 03:40:35;;;;;;;3.77;2.87;;;18.00;69.30;;;;;;5075504;28;20457;-68
2022/09/02 03:43:02;;;;;;;3.30;3.10;;;18.00;70.00;;;;;;5051160;28;20450;-68
2022/09/02 03:45:30;;;;;;;2.90;2.70;;;18.00;69.30;;;;;;5063748;28;20462;-68
2022/09/02 03:47:58;;;;;;;3.13;2.83;;;17.90;69.30;;;;;;5052622;28;20841;-68
2022/09/02 03:50:32;;;;;;;3.13;2.83;;;17.90;69.20;;;;;;5069483;28;20995;-68
2022/09/02 03:52:59;;;;;;;3.17;2.83;;;17.90;69.20;;;;;;5068788;28;20454;-68
2022/09/02 03:55:25;;;;;;;3.33;3.03;;;17.90;69.30;;;;;;5058010;28;20441;-67
2022/09/02 03:57:52;;;;;;;3.40;3.20;;;17.90;69.40;;;;;;5071690;28;20461;-67
2022/09/02 04:00:23;;;;;;;3.17;2.97;;;17.90;69.60;;;;;;5074321;28;20537;-69
2022/09/02 04:02:50;;;;;;;3.03;2.73;;;17.80;69.40;;;;;;5062014;28;20473;-69
2022/09/02 04:05:18;;;;;;;3.97;2.90;;;17.80;69.70;;;;;;5071741;28;20534;-69
2022/09/02 04:07:44;;;;;;;3.20;3.00;;;17.80;69.80;;;;;;5071510;28;20451;-69
2022/09/02 04:10:11;;;;;;;3.20;3.00;;;17.70;69.50;;;;;;5064975;28;20456;-68
2022/09/02 04:12:38;;;;;;;5.33;3.10;;;17.70;69.70;;;;;;5043801;28;20438;-69
2022/09/02 04:15:07;;;;;;;2.90;2.70;;;17.70;69.60;;;;;;5059114;28;20449;-69
2022/09/02 04:21:18;;;;;;;2.73;2.53;;;17.50;69.90;;;;;;5068992;28;20879;-69
2022/09/02 04:23:44;;;;;;;3.13;2.83;;;17.50;69.90;;;;;;5088823;28;20533;-69
2022/09/02 04:26:13;;;;;;;3.43;2.80;;;17.50;70.00;;;;;;5070261;28;20537;-69
2022/09/02 04:28:39;;;;;;;2.60;2.40;;;17.50;70.00;;;;;;5072129;28;20236;-69
2022/09/02 04:31:11;;;;;;;3.03;2.83;;;17.50;69.90;;;;;;5088944;27;20446;-70
2022/09/02 04:33:38;;;;;;;5.63;2.83;;;17.50;70.00;;;;;;5043423;28;20450;-71
2022/09/02 04:36:07;;;;;;;3.30;3.00;;;17.40;69.90;;;;;;5059453;28;20500;-69
2022/09/02 04:38:34;;;;;;;4.33;3.20;;;17.40;70.00;;;;;;5056816;28;20537;-69
2022/09/02 04:41:12;;;;;;;2.97;2.77;;;17.40;70.10;;;;;;5080303;27;20461;-68
2022/09/02 04:43:39;;;;;;;3.13;2.93;;;17.30;70.40;;;;;;5054259;28;20457;-69
2022/09/02 04:46:09;;;;;;;3.20;3.00;;;17.30;70.50;;;;;;5069960;28;20531;-69
2022/09/02 04:48:35;;;;;;;3.80;3.20;;;17.30;70.40;;;;;;5069215;28;20445;-69
2022/09/02 04:51:19;;;;;;;4.10;3.13;;;17.30;70.40;;;;;;5068734;28;20458;-69
2022/09/02 04:53:49;;;;;;;9.13;3.40;;;17.30;70.40;;;;;;5072820;28;21037;-69
2022/09/02 04:56:20;;;;;;;3.33;3.13;;;17.20;70.50;;;;;;5074451;28;20524;-69
2022/09/02 04:58:47;;;;;;;3.90;2.97;;;17.20;70.70;;;;;;5066913;28;20556;-69
2022/09/02 05:01:17;;;;;;;3.80;3.40;;;17.20;70.80;;;;;;5050815;28;20469;-68
2022/09/02 05:03:44;;;;;;;3.23;3.03;;;17.20;70.80;;;;;;5072617;28;20500;-70
2022/09/02 05:06:13;;;;;;;3.83;3.27;;;17.20;70.80;;;;;;5054962;28;20560;-69
2022/09/02 05:08:42;;;;;;;3.43;2.63;;;17.20;71.60;;;;;;5067609;28;20508;-69
2022/09/02 05:11:12;;;;;;;3.20;2.90;;;17.10;70.90;;;;;;5072503;28;20462;-69
2022/09/02 05:13:39;;;;;;;4.73;3.07;;;17.10;70.90;;;;;;5053246;28;21035;-69
2022/09/02 05:16:06;;;;;;;2.90;2.70;;;17.10;71.10;;;;;;5047828;28;20480;-69
2022/09/02 05:18:33;;;;;;;6.30;3.17;;;17.00;71.80;;;;;;5086593;28;20553;-69
2022/09/02 05:21:04;;;;;;;3.50;3.27;;;17.00;71.40;;;;;;5067272;28;20459;-68
2022/09/02 05:23:30;;;;;;;2.97;2.77;;;17.00;71.40;;;;;;5056754;28;20474;-69
2022/09/02 05:25:56;;;;;;;3.20;2.93;;;16.90;71.50;;;;;;5069768;28;20526;-68
2022/09/02 05:28:22;;;;;;;3.47;3.03;;;16.90;71.90;;;;;;5058550;28;20215;-68
2022/09/02 05:30:48;;;;;;;3.67;2.80;;;16.90;71.70;;;;;;5048909;28;20462;-69
2022/09/02 05:33:15;;;;;;;3.07;2.77;;;16.90;71.90;;;;;;5081869;28;20216;-69
2022/09/02 05:35:43;;;;;;;2.93;2.73;;;17.00;71.90;;;;;;5069683;28;20457;-70
2022/09/02 05:38:09;;;;;;;5.63;3.37;;;17.00;71.80;;;;;;5067665;28;20461;-69
2022/09/02 05:40:37;;;;;;;3.10;2.80;;;17.00;71.90;;;;;;5062029;28;20969;-69
2022/09/02 05:43:04;;;;;;;3.43;3.13;;;16.90;71.80;;;;;;5052888;28;20469;-68
2022/09/02 05:45:30;;;;;;;3.20;2.90;;;16.90;72.10;;;;;;5066538;28;20466;-69
2022/09/02 05:47:56;;;;;;;3.17;2.97;;;16.90;72.40;;;;;;5067994;28;20445;-68
2022/09/02 05:50:25;;;;;;;3.33;3.03;;;16.90;72.70;;;;;;5059723;28;20226;-69
2022/09/02 05:52:51;;;;;;;4.93;3.17;;;16.90;72.10;;;;;;5062488;28;20662;-69
2022/09/02 05:55:17;;;;;;;10.53;3.50;;;16.90;72.20;;;;;;5069256;28;20694;-68
2022/09/02 05:57:44;;;;;;;4.67;3.67;;;17.00;72.50;;;;;;5061254;28;20552;-70
2022/09/02 06:00:11;;;;;;;2.80;2.60;;;17.00;72.90;;;;;;5053170;28;20226;-69
2022/09/02 06:02:40;;;;;;;2.77;2.40;;;17.00;72.90;;;;;;5055592;28;20817;-69
2022/09/02 06:05:10;;;;;;;2.90;2.70;;;17.00;73.00;;;;;;5065446;28;20461;-69
2022/09/02 06:07:39;;;;;;;3.00;2.80;;;17.00;72.80;;;;;;5058913;28;20451;-69
2022/09/02 06:10:07;;;;;;;2.70;2.50;;;17.00;73.10;;;;;;5068620;28;20863;-69
2022/09/02 06:12:32;;;;;;;3.40;3.10;;;17.00;73.00;;;;;;5067126;28;20446;-68
2022/09/02 06:14:58;;;;;;;3.20;2.90;;;17.00;73.20;;;;;;5066822;28;20448;-69
2022/09/02 06:17:26;;;;;;;2.70;2.50;;;17.00;73.40;;;;;;5063650;28;20220;-69
2022/09/02 06:19:52;;;;;;;2.93;2.50;;;17.10;74.10;;;;;;5065969;28;20448;-69
2022/09/02 06:22:20;;;;;;;3.20;3.00;;;17.10;74.20;;;;;;5052296;28;20446;-68
2022/09/02 06:24:47;;;;;;;2.93;2.73;;;17.10;74.10;;;;;;5066666;28;20446;-70
2022/09/02 06:27:18;;;;;;;2.87;2.67;;;17.10;74.30;;;;;;5064734;28;20457;-69
2022/09/02 06:29:46;;;;;;;3.03;2.57;;;17.20;74.90;;;;;;5065172;28;20467;-69
2022/09/02 06:32:17;;;;;;;2.67;2.40;;;17.20;74.40;;;;;;5062167;28;20515;-69
2022/09/02 06:34:43;;;;;;;2.40;2.20;;;17.20;75.30;;;;;;5061877;28;20542;-70
2022/09/02 06:37:09;;;;;;;3.30;2.97;;;17.20;74.80;;;;;;5042126;28;21041;-69
2022/09/02 06:39:42;;;;;;;2.67;2.37;;;17.30;74.90;;;;;;5045532;28;20461;-70
2022/09/02 06:42:09;;;;;;;2.97;2.63;;;17.30;75.40;;;;;;5055534;28;20520;-70
2022/09/02 06:44:44;;;;;;;4.03;2.50;;;17.40;75.60;;;;;;5061318;28;20455;-70
2022/09/02 06:47:10;;;;;;;2.53;2.33;;;17.40;75.40;;;;;;5036502;28;21016;-69
2022/09/02 06:49:35;;;;;;;3.20;3.00;;;17.40;75.60;;;;;;5070931;28;20449;-70
2022/09/02 06:52:01;;;;;;;3.30;2.70;;;17.50;75.80;;;;;;5056475;28;20591;-70
2022/09/02 06:54:32;;;;;;;2.60;2.40;;;17.60;75.90;;;;;;5060589;28;20219;-69
2022/09/02 06:57:09;;;;;;;2.70;2.30;;;17.60;76.80;;;;;;5057393;28;20471;-69
2022/09/02 06:59:37;;;;;;;2.27;2.10;;;17.70;76.30;;;;;;5067360;28;20489;-70
2022/09/02 07:02:03;;;;;;;3.70;2.50;;;17.80;77.10;;;;;;5063925;28;20450;-69
2022/09/02 07:07:17;;;;;;;2.60;2.40;;;17.90;77.30;;;;;;5054522;28;20223;-70
2022/09/02 07:09:54;;;;;;;3.03;2.77;;;18.00;77.20;;;;;;5061174;28;20454;-70
2022/09/02 07:12:20;;;;;;;3.83;2.20;;;18.00;77.50;;;;;;5063905;28;20568;-70
2022/09/02 07:14:52;;;;;;;2.97;2.77;;;18.10;77.30;;;;;;5065014;28;20457;-70
2022/09/02 07:17:23;;;;;;;2.23;2.13;;;18.20;77.20;;;;;;5054662;28;20577;-69
2022/09/02 07:19:56;;;;;;;3.50;3.20;;;18.20;77.10;;;;;;5061787;28;20446;-69
2022/09/02 07:22:22;;;;;;;4.63;3.40;;;18.30;77.40;;;;;;5064172;28;20518;-68
2022/09/02 07:24:48;;;;;;;2.57;2.37;;;18.30;76.80;;;;;;5067635;28;20472;-69
2022/09/02 07:27:14;;;;;;;2.43;2.30;;;18.40;77.00;;;;;;5066701;28;20450;-68
2022/09/02 07:29:43;;;;;;;5.93;2.70;;;18.40;76.90;;;;;;5069087;28;20223;-69
2022/09/02 07:32:10;;;;;;;6.73;2.40;;;18.50;76.80;;;;;;5064954;28;20846;-69
2022/09/02 07:34:36;;;;;;;2.80;2.60;;;18.60;76.70;;;;;;5065407;28;20950;-69
2022/09/02 07:37:02;;;;;;;3.07;2.77;;;18.60;76.70;;;;;;5049541;28;20483;-69
2022/09/02 07:39:27;;;;;;;2.70;2.50;;;18.70;76.90;;;;;;5069044;28;20224;-70
2022/09/02 07:41:53;;;;;;;2.63;2.43;;;18.80;76.80;;;;;;5064362;28;20304;-70
2022/09/02 07:44:21;;;;;;;2.87;2.67;;;18.80;76.80;;;;;;5059621;28;20231;-69
2022/09/02 07:46:49;;;;;;;2.23;2.13;;;19.00;77.00;;;;;;5048137;28;20473;-69
2022/09/02 07:49:19;;;;;;;2.60;2.40;;;19.00;76.60;;;;;;5067583;28;20445;-70
2022/09/02 07:51:49;;;;;;;3.13;2.93;;;19.10;75.70;;;;;;5063111;28;20450;-68
2022/09/02 07:54:19;;;;;;;2.50;2.30;;;19.20;75.70;;;;;;5060532;28;20920;-68
2022/09/02 07:56:45;;;;;;;2.73;2.50;;;19.30;75.70;;;;;;5076742;28;20449;-69
2022/09/02 07:59:11;;;;;;;2.30;2.10;;;19.40;75.50;;;;;;5061099;28;20441;-69
2022/09/02 08:01:42;;;;;;;2.60;2.50;;;19.40;74.90;;;;;;5063354;28;20478;-70
2022/09/02 08:04:08;;;;;;;6.33;2.40;;;19.50;74.50;;;;;;5075292;28;20443;-70
2022/09/02 08:06:36;;;;;;;2.80;2.60;;;19.50;74.70;;;;;;5067809;28;20470;-68
2022/09/02 08:09:10;;;;;;;5.33;2.40;;;19.60;74.10;;;;;;5063906;28;20450;-68
2022/09/02 08:11:41;;;;;;;2.73;2.53;;;19.60;74.40;;;;;;5057350;28;20468;-69
2022/09/02 08:14:10;;;;;;;2.60;2.40;;;19.70;74.80;;;;;;5066668;27;20457;-70
2022/09/02 08:16:36;;;;;;;3.70;2.70;;;19.80;74.40;;;;;;5049163;28;20524;-68
2022/09/02 08:19:02;;;;;;;2.70;2.53;;;19.90;73.70;;;;;;5077635;28;20450;-70
2022/09/02 08:21:28;;;;;;;4.40;2.73;;;19.90;73.80;;;;;;5056047;28;20496;-69
2022/09/02 08:23:54;;;;;;;2.87;2.67;;;20.00;73.40;;;;;;5066676;28;20274;-69
2022/09/02 08:26:20;;;;;;;2.70;2.50;;;20.10;73.60;;;;;;5067235;28;20690;-69
2022/09/02 08:28:46;;;;;;;2.80;2.60;;;20.20;73.10;;;;;;5078554;28;20223;-70
2022/09/02 08:31:11;;;;;;;3.20;2.90;;;20.30;73.30;;;;;;5064750;28;20453;-69
2022/09/02 08:33:37;;;;;;;3.90;2.33;;;20.40;72.20;;;;;;5078663;28;20215;-69
2022/09/02 08:36:07;;;;;;;4.10;2.20;;;20.50;72.20;;;;;;5068300;28;20219;-69
2022/09/02 08:38:34;;;;;;;3.50;2.43;;;20.60;72.10;;;;;;5067617;28;20277;-69
2022/09/02 08:41:00;;;;;;;4.10;2.20;;;20.70;72.40;;;;;;5068352;28;20982;-69
2022/09/02 08:43:41;;;;;;;2.50;2.40;;;20.80;71.90;;;;;;5068685;28;20442;-69
2022/09/02 08:46:14;;;;;;;2.53;2.30;;;20.80;72.10;;;;;;5062249;28;20469;-69
2022/09/02 08:49:03;;;;;;;2.87;2.67;;;21.00;72.00;;;;;;5073980;28;20544;-69
2022/09/02 08:51:47;;;;;;;2.17;2.07;;;21.10;71.70;;;;;;5067331;28;20463;-69
2022/09/02 08:54:40;;;;;;;2.57;2.40;;;21.30;71.10;;;;;;5078265;28;20438;-68
2022/09/02 08:57:08;;;;;;;2.50;2.40;;;21.30;70.70;;;;;;5067037;28;20457;-69
2022/09/02 08:59:35;;;;;;;3.10;2.40;;;21.30;69.30;;;;;;5070147;28;20441;-68
2022/09/02 09:02:40;;;;;;;2.40;2.30;;;21.40;70.10;;;;;;5070141;28;20654;-69
2022/09/02 09:05:06;;;;;;;5.33;2.30;;;21.60;69.90;;;;;;5060805;28;20457;-69
2022/09/02 09:07:49;;;;;;;2.20;2.10;;;21.90;68.80;;;;;;5069133;28;20453;-70
2022/09/02 09:10:24;;;;;;;2.50;2.40;;;21.90;68.80;;;;;;5070247;28;20239;-68
2022/09/02 09:12:49;;;;;;;2.90;2.63;;;21.80;67.80;;;;;;5080303;28;20453;-69
2022/09/02 09:15:39;;;;;;;2.70;2.50;;;21.80;68.00;;;;;;5076035;28;20454;-70
2022/09/02 09:18:08;;;;;;;2.53;2.40;;;21.90;67.90;;;;;;5065760;28;20248;-69
2022/09/02 09:20:39;;;;;;;2.97;2.77;;;21.90;67.40;;;;;;5063762;28;20465;-69
2022/09/02 09:23:28;;;;;;;2.40;2.17;;;22.10;67.90;;;;;;5055493;28;20542;-69
2022/09/02 09:26:04;;;;;;;2.83;2.37;;;22.30;68.10;;;;;;5057969;28;20486;-69
2022/09/02 09:28:30;;;;;;;2.70;2.50;;;22.30;67.10;;;;;;5070512;28;20444;-70
2022/09/02 09:30:59;;;;;;;2.63;2.53;;;22.30;67.10;;;;;;5071693;28;20488;-67
2022/09/02 09:33:25;;;;;;;2.37;2.17;;;22.40;67.10;;;;;;5069665;28;20442;-70
2022/09/02 09:35:55;;;;;;;2.67;2.50;;;22.60;67.00;;;;;;5065080;28;20471;-70
2022/09/02 09:38:29;;;;;;;2.83;2.60;;;22.80;67.00;;;;;;5049595;28;20245;-70
2022/09/02 09:41:15;;;;;;;2.67;2.50;;;22.90;67.20;;;;;;5069789;28;20467;-69
2022/09/02 09:43:41;;;;;;;2.60;2.40;;;23.10;65.70;;;;;;5067759;28;20461;-71
2022/09/02 09:46:33;;;;;;;2.17;2.07;;;23.20;65.00;;;;;;5064912;28;20465;-70
2022/09/02 09:48:59;;;;;;;2.33;2.23;;;23.30;65.50;;;;;;5048071;28;20709;-70
2022/09/02 09:51:25;;;;;;;2.90;2.70;;;23.30;64.90;;;;;;5067265;28;20452;-70
2022/09/02 09:53:51;;;;;;;2.63;2.53;;;23.30;65.50;;;;;;5064722;28;20445;-70
2022/09/02 09:56:17;;;;;;;2.77;2.40;;;23.30;65.70;;;;;;5048271;28;20214;-70
2022/09/02 09:58:45;;;;;;;2.93;2.73;;;23.30;63.80;;;;;;5066850;28;20464;-70
2022/09/02 10:01:16;;;;;;;2.23;2.13;;;23.40;64.30;;;;;;5067431;28;20456;-69
2022/09/02 10:03:51;;;;;;;2.67;2.47;;;23.60;63.20;;;;;;5070228;28;20497;-70
2022/09/02 10:06:22;;;;;;;2.80;2.60;;;23.70;63.00;;;;;;5066260;28;20460;-70
2022/09/02 10:08:53;;;;;;;2.63;2.43;;;23.80;62.40;;;;;;5049825;28;20452;-70
2022/09/02 10:11:28;;;;;;;2.73;2.53;;;23.90;61.60;;;;;;5044032;28;20540;-70
2022/09/02 10:14:05;;;;;;;2.50;2.30;;;24.10;62.20;;;;;;5059026;28;20456;-70
2022/09/02 10:16:45;;;;;;;2.63;2.50;;;24.10;62.00;;;;;;5063114;28;20805;-70
2022/09/02 10:19:25;;;;;;;2.37;2.17;;;24.20;60.70;;;;;;5061173;28;20956;-70
2022/09/02 10:22:14;;;;;;;2.47;2.37;;;24.20;59.70;;;;;;5041451;28;20527;-70
2022/09/02 10:25:06;;;;;;;2.00;1.90;;;24.30;59.40;;;;;;5052752;28;20483;-70
2022/09/02 10:27:54;;;;;;;2.20;2.10;;;24.50;59.30;;;;;;5060755;28;20453;-70
2022/09/02 10:30:23;;;;;;;2.40;2.20;;;24.60;59.40;;;;;;5063896;28;20441;-69
2022/09/02 10:33:00;;;;;;;2.30;2.10;;;24.60;59.60;;;;;;5066058;28;20445;-68
2022/09/02 10:35:38;;;;;;;2.63;2.43;;;24.60;59.20;;;;;;5062063;28;20446;-69
2022/09/02 10:38:28;;;;;;;2.30;2.10;;;24.50;59.30;;;;;;5069896;28;20449;-70
2022/09/02 10:41:21;;;;;;;4.27;2.53;;;24.60;59.00;;;;;;5057456;28;20449;-69
2022/09/02 10:44:16;;;;;;;2.80;2.57;;;24.50;58.30;;;;;;5058744;28;20437;-70
2022/09/02 10:46:47;;;;;;;2.20;2.00;;;24.30;58.10;;;;;;5060994;28;20470;-69
2022/09/02 10:49:34;;;;;;;2.50;2.30;;;24.20;57.30;;;;;;5065473;28;20462;-69
2022/09/02 10:52:30;;;;;;;2.47;2.27;;;24.20;57.40;;;;;;5082630;28;20463;-69
2022/09/02 10:55:05;;;;;;;3.03;2.30;;;24.20;57.00;;;;;;5063600;28;20457;-70
2022/09/02 10:57:47;;;;;;;2.00;1.90;;;24.40;57.30;;;;;;5069440;28;20531;-68
2022/09/02 11:00:18;;;;;;;2.37;2.20;;;24.50;56.90;;;;;;5078380;28;20433;-68
2022/09/02 11:02:52;;;;;;;6.63;2.20;;;24.50;56.30;;;;;;5060670;28;20449;-70
2022/09/02 11:05:26;;;;;;;1.93;1.80;;;24.80;55.60;;;;;;5067497;28;20553;-69
2022/09/02 11:08:02;;;;;;;1.80;1.70;;;25.00;56.20;;;;;;5058756;28;20460;-70
2022/09/02 11:10:42;;;;;;;2.83;2.63;;;25.20;55.60;;;;;;5056478;28;20449;-68
2022/09/02 11:13:18;;;;;;;1.90;1.80;;;25.10;55.50;;;;;;5065085;28;20449;-69
2022/09/02 11:16:05;;;;;;;1.80;1.70;;;25.00;54.80;;;;;;5069556;28;20464;-69
2022/09/02 11:18:58;;;;;;;1.90;1.80;;;25.20;55.10;;;;;;5066239;28;20456;-69
2022/09/02 11:21:49;;;;;;;1.93;1.83;;;25.20;55.80;;;;;;5063525;28;20523;-69
2022/09/02 11:24:25;;;;;;;2.20;1.90;;;25.50;55.10;;;;;;5068294;28;20528;-70
2022/09/02 11:27:20;;;;;;;2.83;1.90;;;25.40;54.90;;;;;;5056717;27;20588;-69
2022/09/02 11:30:13;;;;;;;2.13;1.80;;;25.30;54.50;;;;;;5067165;28;21043;-69
2022/09/02 11:32:46;;;;;;;2.10;1.90;;;25.30;54.20;;;;;;5063391;28;20438;-70
2022/09/02 11:35:26;;;;;;;2.00;1.80;;;25.20;54.30;;;;;;5054227;28;20458;-68
2022/09/02 11:38:15;;;;;;;1.73;1.63;;;25.20;54.40;;;;;;5053142;28;20463;-71
2022/09/02 11:41:18;;;;;;;2.10;2.00;;;25.20;54.50;;;;;;5056455;28;21034;-68
2022/09/02 11:44:00;;;;;;;1.87;1.77;;;25.00;54.40;;;;;;5065071;28;20533;-69
2022/09/02 11:46:49;;;;;;;2.33;2.13;;;25.00;54.20;;;;;;5047618;28;20460;-71
2022/09/02 11:49:31;;;;;;;2.00;1.90;;;25.10;54.00;;;;;;5075694;28;21000;-71
2022/09/02 11:53:11;;;;;;;6.30;2.30;;;25.30;54.00;;;;;;5046462;28;20618;-71
2022/09/02 11:55:40;;;;;;;2.10;2.00;;;25.70;54.40;;;;;;4915038;29;21068;-71
2022/09/02 11:58:07;;;;;;;2.00;1.90;;;25.80;53.50;;;;;;5004920;28;20854;-71
2022/09/02 12:00:54;;;;;;;1.80;1.70;;;25.90;53.40;;;;;;5037743;28;21057;-71
2022/09/02 12:03:28;;;;;;;2.80;1.90;;;25.90;53.30;;;;;;5064050;28;20510;-71
2022/09/02 12:06:07;;;;;;;2.30;2.20;;;25.80;53.50;;;;;;5048217;28;20469;-71
2022/09/02 12:08:35;;;;;;;2.40;2.07;;;25.60;53.10;;;;;;5065399;28;20545;-71
2022/09/02 12:11:06;;;;;;;2.10;1.90;;;25.30;53.40;;;;;;5064692;28;20449;-71
2022/09/02 12:13:48;;;;;;;2.40;2.27;;;25.20;53.70;;;;;;5064380;28;20452;-71
2022/09/02 12:16:22;;;;;;;2.17;2.00;;;25.30;53.70;;;;;;5074999;28;20873;-70
2022/09/02 12:18:54;;;;;;;1.97;1.87;;;25.10;53.10;;;;;;5052732;28;20460;-70
2022/09/02 12:21:21;;;;;;;1.80;1.70;;;25.30;53.40;;;;;;5053517;28;20541;-69
2022/09/02 12:23:51;;;;;;;2.07;1.97;;;25.60;52.90;;;;;;5064223;28;20470;-72
2022/09/02 12:26:20;;;;;;;2.47;1.67;;;25.80;53.20;;;;;;5063534;28;20463;-71
2022/09/02 12:28:48;;;;;;;2.50;2.00;;;25.80;52.90;;;;;;5065064;28;20455;-71
2022/09/02 12:31:41;;;;;;;2.23;2.07;;;25.80;53.40;;;;;;5063807;28;20456;-71
2022/09/02 12:34:19;;;;;;;2.33;2.23;;;25.70;52.60;;;;;;5056156;28;20461;-71
2022/09/02 12:36:50;;;;;;;2.50;1.70;;;25.50;53.10;;;;;;5066242;28;20537;-71
2022/09/02 12:39:28;;;;;;;4.53;1.87;;;25.40;53.00;;;;;;5046913;28;20449;-70
2022/09/02 12:41:56;;;;;;;2.60;2.23;;;25.60;53.10;;;;;;5036068;28;20617;-72
2022/09/02 12:44:47;;;;;;;3.07;2.37;;;25.80;52.70;;;;;;5041764;28;20472;-71
2022/09/02 12:47:18;;;;;;;2.00;1.90;;;26.00;53.30;;;;;;5047566;28;20448;-71
2022/09/02 12:49:52;;;;;;;2.73;2.20;;;26.10;53.40;;;;;;5047816;28;20473;-71
2022/09/02 12:52:33;;;;;;;1.83;1.73;;;26.20;53.10;;;;;;5041935;28;20440;-71
2022/09/02 12:55:22;;;;;;;2.20;2.10;;;26.30;53.50;;;;;;5060954;28;20949;-71
2022/09/02 12:58:04;;;;;;;2.73;2.40;;;26.50;52.80;;;;;;5029680;28;21063;-71
2022/09/02 13:00:45;;;;;;;2.20;2.10;;;26.50;52.50;;;;;;5046850;28;20454;-71
2022/09/02 13:03:31;;;;;;;2.10;2.00;;;26.20;52.60;;;;;;5042420;28;20475;-71
2022/09/02 13:06:25;;;;;;;2.10;2.00;;;26.30;53.00;;;;;;5046293;28;20462;-71
2022/09/02 13:09:28;;;;;;;2.10;2.00;;;26.40;53.40;;;;;;5031691;28;20453;-71
2022/09/02 13:12:25;;;;;;;2.53;2.30;;;26.60;52.40;;;;;;5050308;28;20821;-71
2022/09/02 13:15:17;;;;;;;2.33;2.10;;;26.60;52.90;;;;;;5046651;28;20459;-71
2022/09/02 13:17:46;;;;;;;2.17;2.03;;;26.30;52.10;;;;;;5045678;28;20454;-71